Airey, Mississippi
Current Conditions -  °F | °C
As of 10:53 PM on Friday 24 Oct 2014 (Local Time) from KGPT Reporting Station
Clear Clear  
Wind Chill: 55°   Ceiling: Unl
Heat Index: 55°   Visibility: 7mi
Dew Point: 50°   Wind: 3mph
Humidity: 83%   Direction: 340°NNW
Pressure: 30.08"   Gusts: NA
Location:  30.603°N, 89.0932°W
Report Text: KGPT 250353Z AUTO 34003KT 7SM CLR 13/10 A3008 RMK AO2 SLP186 T01280100
Loading
Personal Weather Stations






























Interactive Weather Map
Tropical Storm Tracking
New forecast layout! Learn more

10-Day Weather Forecast

Advertisements
Track Severe Weather on mobile